sensor_id;sensor_type;location;lat;lon;timestamp;P1;durP1;ratioP1;P2;durP2;ratioP2
39776;SDS011;25453;48.162;14.510;2024-03-23T00:56:20;6.95;;;3.13;;
39776;SDS011;25453;48.162;14.510;2024-03-23T00:58:46;7.43;;;3.38;;
39776;SDS011;25453;48.162;14.510;2024-03-23T01:01:12;6.07;;;2.95;;
39776;SDS011;25453;48.162;14.510;2024-03-23T01:03:38;5.63;;;3.13;;
39776;SDS011;25453;48.162;14.510;2024-03-23T01:06:04;5.85;;;2.88;;
39776;SDS011;25453;48.162;14.510;2024-03-23T01:08:31;5.93;;;2.88;;
39776;SDS011;25453;48.162;14.510;2024-03-23T01:10:57;6.35;;;3.03;;
39776;SDS011;25453;48.162;14.510;2024-03-23T01:13:25;6.55;;;3.20;;
39776;SDS011;25453;48.162;14.510;2024-03-23T01:15:52;5.15;;;2.95;;
39776;SDS011;25453;48.162;14.510;2024-03-23T01:18:20;5.50;;;3.00;;
39776;SDS011;25453;48.162;14.510;2024-03-23T01:20:47;5.45;;;3.30;;
39776;SDS011;25453;48.162;14.510;2024-03-23T01:23:13;5.90;;;2.70;;
39776;SDS011;25453;48.162;14.510;2024-03-23T01:25:39;5.25;;;3.05;;
39776;SDS011;25453;48.162;14.510;2024-03-23T01:28:06;5.47;;;2.97;;
39776;SDS011;25453;48.162;14.510;2024-03-23T01:30:36;5.28;;;3.30;;
39776;SDS011;25453;48.162;14.510;2024-03-23T01:33:02;7.28;;;2.75;;
39776;SDS011;25453;48.162;14.510;2024-03-23T01:35:30;6.70;;;3.35;;
39776;SDS011;25453;48.162;14.510;2024-03-23T01:37:56;4.97;;;2.80;;
39776;SDS011;25453;48.162;14.510;2024-03-23T01:40:22;5.53;;;2.42;;
39776;SDS011;25453;48.162;14.510;2024-03-23T01:42:55;5.40;;;2.72;;
39776;SDS011;25453;48.162;14.510;2024-03-23T01:45:21;4.55;;;1.88;;
39776;SDS011;25453;48.162;14.510;2024-03-23T01:47:49;4.38;;;2.30;;
39776;SDS011;25453;48.162;14.510;2024-03-23T01:50:16;4.65;;;2.80;;
39776;SDS011;25453;48.162;14.510;2024-03-23T01:52:42;6.10;;;2.60;;
39776;SDS011;25453;48.162;14.510;2024-03-23T01:55:09;5.22;;;2.58;;
39776;SDS011;25453;48.162;14.510;2024-03-23T01:57:36;5.28;;;2.80;;
39776;SDS011;25453;48.162;14.510;2024-03-23T02:00:02;7.68;;;2.80;;
39776;SDS011;25453;48.162;14.510;2024-03-23T02:02:29;4.03;;;2.30;;
39776;SDS011;25453;48.162;14.510;2024-03-23T02:04:55;6.50;;;3.67;;
39776;SDS011;25453;48.162;14.510;2024-03-23T02:07:21;5.70;;;2.42;;
39776;SDS011;25453;48.162;14.510;2024-03-23T02:09:49;5.72;;;3.00;;
39776;SDS011;25453;48.162;14.510;2024-03-23T02:12:16;4.05;;;2.35;;
39776;SDS011;25453;48.162;14.510;2024-03-23T02:14:43;5.55;;;2.35;;
39776;SDS011;25453;48.162;14.510;2024-03-23T02:17:09;4.55;;;2.25;;
39776;SDS011;25453;48.162;14.510;2024-03-23T02:19:35;4.43;;;2.50;;
39776;SDS011;25453;48.162;14.510;2024-03-23T02:22:01;3.63;;;2.33;;
39776;SDS011;25453;48.162;14.510;2024-03-23T02:24:29;8.18;;;2.53;;
39776;SDS011;25453;48.162;14.510;2024-03-23T02:26:55;5.85;;;2.13;;
39776;SDS011;25453;48.162;14.510;2024-03-23T02:29:21;4.50;;;2.63;;
39776;SDS011;25453;48.162;14.510;2024-03-23T02:31:47;4.13;;;2.10;;
39776;SDS011;25453;48.162;14.510;2024-03-23T02:34:13;4.13;;;2.30;;
39776;SDS011;25453;48.162;14.510;2024-03-23T02:36:39;4.00;;;2.60;;
39776;SDS011;25453;48.162;14.510;2024-03-23T02:39:05;4.55;;;2.40;;
39776;SDS011;25453;48.162;14.510;2024-03-23T02:41:32;4.35;;;2.42;;
39776;SDS011;25453;48.162;14.510;2024-03-23T02:43:58;4.32;;;2.63;;
39776;SDS011;25453;48.162;14.510;2024-03-23T02:46:24;5.45;;;2.42;;
39776;SDS011;25453;48.162;14.510;2024-03-23T02:48:50;5.03;;;2.30;;
39776;SDS011;25453;48.162;14.510;2024-03-23T02:51:16;5.05;;;2.35;;
39776;SDS011;25453;48.162;14.510;2024-03-23T02:53:42;4.72;;;2.30;;
39776;SDS011;25453;48.162;14.510;2024-03-23T02:56:08;5.45;;;2.75;;
39776;SDS011;25453;48.162;14.510;2024-03-23T02:58:39;4.50;;;2.22;;
39776;SDS011;25453;48.162;14.510;2024-03-23T03:01:05;5.72;;;2.42;;
39776;SDS011;25453;48.162;14.510;2024-03-23T03:03:31;4.13;;;2.17;;
39776;SDS011;25453;48.162;14.510;2024-03-23T03:05:58;3.95;;;2.10;;
39776;SDS011;25453;48.162;14.510;2024-03-23T03:08:24;3.42;;;2.00;;
39776;SDS011;25453;48.162;14.510;2024-03-23T03:10:50;5.40;;;2.85;;
39776;SDS011;25453;48.162;14.510;2024-03-23T03:13:17;3.55;;;2.00;;
39776;SDS011;25453;48.162;14.510;2024-03-23T03:15:43;3.88;;;2.10;;
39776;SDS011;25453;48.162;14.510;2024-03-23T03:18:09;5.25;;;2.60;;
39776;SDS011;25453;48.162;14.510;2024-03-23T03:20:39;5.45;;;2.15;;
39776;SDS011;25453;48.162;14.510;2024-03-23T03:23:06;5.10;;;2.50;;
39776;SDS011;25453;48.162;14.510;2024-03-23T03:25:32;3.55;;;2.10;;
39776;SDS011;25453;48.162;14.510;2024-03-23T03:27:59;6.05;;;2.42;;
39776;SDS011;25453;48.162;14.510;2024-03-23T03:30:25;3.60;;;1.98;;
39776;SDS011;25453;48.162;14.510;2024-03-23T03:32:54;5.60;;;2.65;;
39776;SDS011;25453;48.162;14.510;2024-03-23T03:35:21;4.32;;;2.40;;
39776;SDS011;25453;48.162;14.510;2024-03-23T03:37:47;4.03;;;2.45;;
39776;SDS011;25453;48.162;14.510;2024-03-23T03:40:13;5.43;;;2.60;;
39776;SDS011;25453;48.162;14.510;2024-03-23T03:42:42;5.95;;;2.47;;
39776;SDS011;25453;48.162;14.510;2024-03-23T03:45:08;4.10;;;2.35;;
39776;SDS011;25453;48.162;14.510;2024-03-23T03:47:34;4.75;;;2.15;;
39776;SDS011;25453;48.162;14.510;2024-03-23T03:50:01;4.72;;;2.10;;
39776;SDS011;25453;48.162;14.510;2024-03-23T03:52:27;6.95;;;2.67;;
39776;SDS011;25453;48.162;14.510;2024-03-23T03:54:55;5.32;;;2.42;;
39776;SDS011;25453;48.162;14.510;2024-03-23T03:57:27;3.85;;;2.13;;
39776;SDS011;25453;48.162;14.510;2024-03-23T03:59:54;8.27;;;2.97;;
39776;SDS011;25453;48.162;14.510;2024-03-23T04:02:20;5.15;;;2.10;;
39776;SDS011;25453;48.162;14.510;2024-03-23T04:04:46;5.43;;;2.35;;
39776;SDS011;25453;48.162;14.510;2024-03-23T04:07:12;4.15;;;2.40;;
39776;SDS011;25453;48.162;14.510;2024-03-23T04:09:39;3.75;;;2.17;;
39776;SDS011;25453;48.162;14.510;2024-03-23T04:12:05;4.15;;;2.45;;
39776;SDS011;25453;48.162;14.510;2024-03-23T04:14:32;5.07;;;2.67;;
39776;SDS011;25453;48.162;14.510;2024-03-23T04:16:58;4.93;;;2.45;;
39776;SDS011;25453;48.162;14.510;2024-03-23T04:19:25;4.50;;;2.28;;
39776;SDS011;25453;48.162;14.510;2024-03-23T04:21:51;4.90;;;2.47;;
39776;SDS011;25453;48.162;14.510;2024-03-23T04:24:17;4.90;;;2.42;;
39776;SDS011;25453;48.162;14.510;2024-03-23T04:26:45;4.35;;;2.28;;
39776;SDS011;25453;48.162;14.510;2024-03-23T04:29:11;4.55;;;2.38;;
39776;SDS011;25453;48.162;14.510;2024-03-23T04:31:38;4.22;;;2.15;;
39776;SDS011;25453;48.162;14.510;2024-03-23T04:34:04;4.57;;;2.00;;
39776;SDS011;25453;48.162;14.510;2024-03-23T04:36:30;4.40;;;1.95;;
39776;SDS011;25453;48.162;14.510;2024-03-23T04:38:58;4.38;;;2.20;;
39776;SDS011;25453;48.162;14.510;2024-03-23T04:41:25;5.50;;;2.47;;
39776;SDS011;25453;48.162;14.510;2024-03-23T04:43:51;3.70;;;2.20;;
39776;SDS011;25453;48.162;14.510;2024-03-23T04:46:18;4.13;;;2.10;;
39776;SDS011;25453;48.162;14.510;2024-03-23T04:48:44;4.78;;;2.30;;
39776;SDS011;25453;48.162;14.510;2024-03-23T04:51:10;4.70;;;2.30;;
39776;SDS011;25453;48.162;14.510;2024-03-23T04:53:39;3.58;;;2.13;;
39776;SDS011;25453;48.162;14.510;2024-03-23T04:56:05;4.35;;;1.88;;
39776;SDS011;25453;48.162;14.510;2024-03-23T04:58:32;4.00;;;2.50;;
39776;SDS011;25453;48.162;14.510;2024-03-23T05:00:58;4.00;;;2.20;;
39776;SDS011;25453;48.162;14.510;2024-03-23T05:03:24;4.82;;;2.05;;
39776;SDS011;25453;48.162;14.510;2024-03-23T05:05:50;3.80;;;2.00;;
39776;SDS011;25453;48.162;14.510;2024-03-23T05:08:16;4.05;;;2.10;;
39776;SDS011;25453;48.162;14.510;2024-03-23T05:10:42;4.93;;;2.53;;
39776;SDS011;25453;48.162;14.510;2024-03-23T05:13:09;4.20;;;2.10;;
39776;SDS011;25453;48.162;14.510;2024-03-23T05:15:35;5.25;;;2.33;;
39776;SDS011;25453;48.162;14.510;2024-03-23T05:18:01;5.55;;;2.50;;
39776;SDS011;25453;48.162;14.510;2024-03-23T05:20:28;5.78;;;2.53;;
39776;SDS011;25453;48.162;14.510;2024-03-23T05:22:54;3.83;;;2.08;;
39776;SDS011;25453;48.162;14.510;2024-03-23T05:25:21;3.42;;;1.92;;
39776;SDS011;25453;48.162;14.510;2024-03-23T05:27:48;2.92;;;1.75;;
39776;SDS011;25453;48.162;14.510;2024-03-23T05:30:14;3.63;;;2.10;;
39776;SDS011;25453;48.162;14.510;2024-03-23T05:32:40;5.22;;;2.30;;
39776;SDS011;25453;48.162;14.510;2024-03-23T05:35:09;5.20;;;2.30;;
39776;SDS011;25453;48.162;14.510;2024-03-23T05:37:38;4.40;;;2.50;;
39776;SDS011;25453;48.162;14.510;2024-03-23T05:40:04;4.13;;;2.38;;
39776;SDS011;25453;48.162;14.510;2024-03-23T05:42:30;3.67;;;2.40;;
39776;SDS011;25453;48.162;14.510;2024-03-23T05:44:57;5.93;;;2.42;;
39776;SDS011;25453;48.162;14.510;2024-03-23T05:47:23;5.10;;;2.42;;
39776;SDS011;25453;48.162;14.510;2024-03-23T05:49:52;4.60;;;2.30;;
39776;SDS011;25453;48.162;14.510;2024-03-23T05:52:18;4.60;;;2.22;;
39776;SDS011;25453;48.162;14.510;2024-03-23T05:54:46;4.10;;;2.00;;
39776;SDS011;25453;48.162;14.510;2024-03-23T05:57:12;3.78;;;1.98;;
39776;SDS011;25453;48.162;14.510;2024-03-23T05:59:39;3.65;;;2.00;;
39776;SDS011;25453;48.162;14.510;2024-03-23T06:02:05;5.75;;;2.30;;
39776;SDS011;25453;48.162;14.510;2024-03-23T06:04:31;3.05;;;1.80;;
39776;SDS011;25453;48.162;14.510;2024-03-23T06:06:57;3.67;;;2.05;;
39776;SDS011;25453;48.162;14.510;2024-03-23T06:09:23;4.82;;;2.25;;
39776;SDS011;25453;48.162;14.510;2024-03-23T06:11:50;4.35;;;2.40;;
39776;SDS011;25453;48.162;14.510;2024-03-23T06:14:16;6.57;;;2.53;;
39776;SDS011;25453;48.162;14.510;2024-03-23T06:16:42;6.10;;;2.97;;
39776;SDS011;25453;48.162;14.510;2024-03-23T06:19:09;7.03;;;2.78;;
39776;SDS011;25453;48.162;14.510;2024-03-23T06:21:35;5.63;;;2.95;;
39776;SDS011;25453;48.162;14.510;2024-03-23T06:24:01;5.85;;;3.10;;
39776;SDS011;25453;48.162;14.510;2024-03-23T06:26:28;9.55;;;3.88;;
39776;SDS011;25453;48.162;14.510;2024-03-23T06:28:54;8.27;;;4.22;;
39776;SDS011;25453;48.162;14.510;2024-03-23T06:31:21;6.45;;;3.47;;
39776;SDS011;25453;48.162;14.510;2024-03-23T06:33:47;7.78;;;4.00;;
39776;SDS011;25453;48.162;14.510;2024-03-23T06:36:13;8.25;;;4.40;;
39776;SDS011;25453;48.162;14.510;2024-03-23T06:38:39;9.32;;;4.53;;
39776;SDS011;25453;48.162;14.510;2024-03-23T06:41:06;8.68;;;4.05;;
39776;SDS011;25453;48.162;14.510;2024-03-23T06:43:32;7.75;;;3.90;;
39776;SDS011;25453;48.162;14.510;2024-03-23T06:45:58;6.53;;;3.55;;
39776;SDS011;25453;48.162;14.510;2024-03-23T06:48:24;5.90;;;3.75;;
39776;SDS011;25453;48.162;14.510;2024-03-23T06:50:54;6.65;;;3.40;;
39776;SDS011;25453;48.162;14.510;2024-03-23T06:53:24;6.35;;;3.35;;
39776;SDS011;25453;48.162;14.510;2024-03-23T06:55:50;7.20;;;3.50;;
39776;SDS011;25453;48.162;14.510;2024-03-23T06:58:21;8.38;;;3.80;;
39776;SDS011;25453;48.162;14.510;2024-03-23T07:00:49;5.38;;;2.50;;
39776;SDS011;25453;48.162;14.510;2024-03-23T07:03:16;6.10;;;2.97;;
39776;SDS011;25453;48.162;14.510;2024-03-23T07:05:42;5.45;;;2.70;;
39776;SDS011;25453;48.162;14.510;2024-03-23T07:08:09;6.53;;;2.53;;
39776;SDS011;25453;48.162;14.510;2024-03-23T07:10:41;5.88;;;2.95;;
39776;SDS011;25453;48.162;14.510;2024-03-23T07:13:07;6.72;;;3.63;;
39776;SDS011;25453;48.162;14.510;2024-03-23T07:15:34;4.95;;;2.80;;
39776;SDS011;25453;48.162;14.510;2024-03-23T07:18:00;5.57;;;2.75;;
39776;SDS011;25453;48.162;14.510;2024-03-23T07:20:27;5.32;;;3.03;;
39776;SDS011;25453;48.162;14.510;2024-03-23T07:22:55;3.95;;;2.28;;
39776;SDS011;25453;48.162;14.510;2024-03-23T07:25:21;6.20;;;2.42;;
39776;SDS011;25453;48.162;14.510;2024-03-23T07:27:48;4.60;;;2.70;;
39776;SDS011;25453;48.162;14.510;2024-03-23T07:30:15;4.88;;;2.72;;
39776;SDS011;25453;48.162;14.510;2024-03-23T07:32:43;4.03;;;2.35;;
39776;SDS011;25453;48.162;14.510;2024-03-23T07:35:10;4.72;;;2.65;;
39776;SDS011;25453;48.162;14.510;2024-03-23T07:37:36;4.28;;;2.70;;
39776;SDS011;25453;48.162;14.510;2024-03-23T07:40:02;4.18;;;2.17;;
39776;SDS011;25453;48.162;14.510;2024-03-23T07:42:29;3.90;;;1.98;;
39776;SDS011;25453;48.162;14.510;2024-03-23T07:44:55;3.38;;;1.90;;
39776;SDS011;25453;48.162;14.510;2024-03-23T07:47:22;3.42;;;1.90;;
39776;SDS011;25453;48.162;14.510;2024-03-23T07:49:48;4.43;;;2.20;;
39776;SDS011;25453;48.162;14.510;2024-03-23T07:52:14;5.63;;;2.92;;
39776;SDS011;25453;48.162;14.510;2024-03-23T07:54:40;3.90;;;2.20;;
39776;SDS011;25453;48.162;14.510;2024-03-23T07:57:07;6.15;;;3.05;;
39776;SDS011;25453;48.162;14.510;2024-03-23T07:59:33;4.85;;;2.92;;
39776;SDS011;25453;48.162;14.510;2024-03-23T08:02:00;6.50;;;3.70;;
39776;SDS011;25453;48.162;14.510;2024-03-23T08:04:28;7.25;;;3.53;;
39776;SDS011;25453;48.162;14.510;2024-03-23T08:06:54;6.82;;;3.53;;
39776;SDS011;25453;48.162;14.510;2024-03-23T08:09:20;5.90;;;3.58;;
39776;SDS011;25453;48.162;14.510;2024-03-23T08:11:46;8.45;;;3.95;;
39776;SDS011;25453;48.162;14.510;2024-03-23T08:14:14;6.05;;;3.40;;
39776;SDS011;25453;48.162;14.510;2024-03-23T08:16:41;9.25;;;3.60;;
39776;SDS011;25453;48.162;14.510;2024-03-23T08:19:07;4.97;;;3.17;;
39776;SDS011;25453;48.162;14.510;2024-03-23T08:21:34;5.80;;;3.63;;
39776;SDS011;25453;48.162;14.510;2024-03-23T08:24:00;5.53;;;3.53;;
39776;SDS011;25453;48.162;14.510;2024-03-23T08:26:26;5.88;;;3.10;;
39776;SDS011;25453;48.162;14.510;2024-03-23T08:28:52;6.13;;;2.85;;
39776;SDS011;25453;48.162;14.510;2024-03-23T08:31:18;5.55;;;3.25;;
39776;SDS011;25453;48.162;14.510;2024-03-23T08:33:44;4.22;;;2.58;;
39776;SDS011;25453;48.162;14.510;2024-03-23T08:36:11;4.30;;;2.83;;
39776;SDS011;25453;48.162;14.510;2024-03-23T08:38:39;3.88;;;2.20;;
39776;SDS011;25453;48.162;14.510;2024-03-23T08:41:09;5.88;;;3.20;;
39776;SDS011;25453;48.162;14.510;2024-03-23T08:43:37;6.55;;;2.50;;
39776;SDS011;25453;48.162;14.510;2024-03-23T08:46:07;5.30;;;2.85;;
39776;SDS011;25453;48.162;14.510;2024-03-23T08:48:35;4.18;;;2.55;;
39776;SDS011;25453;48.162;14.510;2024-03-23T08:51:06;5.22;;;2.63;;
39776;SDS011;25453;48.162;14.510;2024-03-23T08:53:34;3.45;;;2.05;;
39776;SDS011;25453;48.162;14.510;2024-03-23T08:56:00;3.78;;;2.10;;
39776;SDS011;25453;48.162;14.510;2024-03-23T08:58:28;3.45;;;2.00;;
39776;SDS011;25453;48.162;14.510;2024-03-23T09:00:55;3.30;;;1.70;;
39776;SDS011;25453;48.162;14.510;2024-03-23T09:03:23;3.80;;;2.25;;
39776;SDS011;25453;48.162;14.510;2024-03-23T09:05:50;3.05;;;1.92;;
39776;SDS011;25453;48.162;14.510;2024-03-23T09:08:17;2.72;;;1.60;;
39776;SDS011;25453;48.162;14.510;2024-03-23T09:10:44;2.25;;;1.52;;
39776;SDS011;25453;48.162;14.510;2024-03-23T09:13:10;2.78;;;1.67;;
39776;SDS011;25453;48.162;14.510;2024-03-23T09:15:44;4.10;;;2.25;;
39776;SDS011;25453;48.162;14.510;2024-03-23T09:18:15;3.05;;;1.88;;
39776;SDS011;25453;48.162;14.510;2024-03-23T09:20:42;3.20;;;1.50;;
39776;SDS011;25453;48.162;14.510;2024-03-23T09:23:08;2.83;;;1.73;;
39776;SDS011;25453;48.162;14.510;2024-03-23T09:25:37;2.38;;;1.67;;
39776;SDS011;25453;48.162;14.510;2024-03-23T09:28:05;3.78;;;1.90;;
39776;SDS011;25453;48.162;14.510;2024-03-23T09:30:32;2.83;;;1.42;;
39776;SDS011;25453;48.162;14.510;2024-03-23T09:32:59;3.20;;;1.30;;
39776;SDS011;25453;48.162;14.510;2024-03-23T09:35:25;2.45;;;1.27;;
39776;SDS011;25453;48.162;14.510;2024-03-23T09:37:52;2.72;;;1.48;;
39776;SDS011;25453;48.162;14.510;2024-03-23T09:40:18;2.05;;;1.15;;
39776;SDS011;25453;48.162;14.510;2024-03-23T09:42:49;2.05;;;1.00;;
39776;SDS011;25453;48.162;14.510;2024-03-23T09:45:26;1.30;;;0.73;;
39776;SDS011;25453;48.162;14.510;2024-03-23T09:47:54;1.65;;;1.00;;
39776;SDS011;25453;48.162;14.510;2024-03-23T09:50:21;3.90;;;1.35;;
39776;SDS011;25453;48.162;14.510;2024-03-23T09:52:48;1.35;;;0.90;;
39776;SDS011;25453;48.162;14.510;2024-03-23T09:55:14;2.22;;;0.80;;
39776;SDS011;25453;48.162;14.510;2024-03-23T09:57:41;1.52;;;0.82;;
39776;SDS011;25453;48.162;14.510;2024-03-23T10:00:07;2.05;;;1.08;;
39776;SDS011;25453;48.162;14.510;2024-03-23T10:02:34;1.75;;;0.95;;
39776;SDS011;25453;48.162;14.510;2024-03-23T10:05:01;2.97;;;1.10;;
39776;SDS011;25453;48.162;14.510;2024-03-23T10:07:27;2.63;;;1.02;;
39776;SDS011;25453;48.162;14.510;2024-03-23T10:09:56;2.65;;;1.08;;
39776;SDS011;25453;48.162;14.510;2024-03-23T10:12:23;1.27;;;1.00;;
39776;SDS011;25453;48.162;14.510;2024-03-23T10:14:50;4.68;;;1.05;;
39776;SDS011;25453;48.162;14.510;2024-03-23T10:17:20;2.03;;;1.20;;
39776;SDS011;25453;48.162;14.510;2024-03-23T10:19:51;4.05;;;1.27;;
39776;SDS011;25453;48.162;14.510;2024-03-23T10:22:21;2.28;;;1.40;;
39776;SDS011;25453;48.162;14.510;2024-03-23T10:24:50;2.97;;;1.52;;
39776;SDS011;25453;48.162;14.510;2024-03-23T10:27:16;7.47;;;2.45;;
39776;SDS011;25453;48.162;14.510;2024-03-23T10:29:47;5.72;;;1.90;;
39776;SDS011;25453;48.162;14.510;2024-03-23T10:32:15;5.00;;;2.05;;
39776;SDS011;25453;48.162;14.510;2024-03-23T10:34:42;5.00;;;2.72;;
39776;SDS011;25453;48.162;14.510;2024-03-23T10:37:09;4.93;;;2.03;;
39776;SDS011;25453;48.162;14.510;2024-03-23T10:42:09;6.03;;;1.02;;
39776;SDS011;25453;48.162;14.510;2024-03-23T10:44:36;6.50;;;1.75;;
39776;SDS011;25453;48.162;14.510;2024-03-23T10:47:02;3.78;;;0.77;;
39776;SDS011;25453;48.162;14.510;2024-03-23T10:49:30;6.15;;;1.60;;
39776;SDS011;25453;48.162;14.510;2024-03-23T10:52:01;3.90;;;1.40;;
39776;SDS011;25453;48.162;14.510;2024-03-23T10:54:28;4.45;;;1.20;;
39776;SDS011;25453;48.162;14.510;2024-03-23T10:57:03;2.42;;;0.93;;
39776;SDS011;25453;48.162;14.510;2024-03-23T10:59:33;4.68;;;1.13;;
39776;SDS011;25453;48.162;14.510;2024-03-23T11:02:02;4.00;;;0.52;;
39776;SDS011;25453;48.162;14.510;2024-03-23T11:04:33;1.15;;;0.57;;
39776;SDS011;25453;48.162;14.510;2024-03-23T11:06:59;2.75;;;0.77;;
39776;SDS011;25453;48.162;14.510;2024-03-23T11:09:39;1.80;;;0.68;;
39776;SDS011;25453;48.162;14.510;2024-03-23T11:14:50;3.53;;;0.75;;
39776;SDS011;25453;48.162;14.510;2024-03-23T11:17:25;4.15;;;0.50;;
39776;SDS011;25453;48.162;14.510;2024-03-23T11:20:00;3.03;;;0.63;;
39776;SDS011;25453;48.162;14.510;2024-03-23T11:22:43;5.90;;;0.80;;
39776;SDS011;25453;48.162;14.510;2024-03-23T11:25:32;1.50;;;0.52;;
39776;SDS011;25453;48.162;14.510;2024-03-23T11:28:11;1.08;;;0.57;;
39776;SDS011;25453;48.162;14.510;2024-03-23T11:30:38;3.47;;;0.70;;
39776;SDS011;25453;48.162;14.510;2024-03-23T11:33:04;2.22;;;0.52;;
39776;SDS011;25453;48.162;14.510;2024-03-23T11:35:34;3.92;;;0.90;;
39776;SDS011;25453;48.162;14.510;2024-03-23T11:38:15;0.93;;;0.47;;
39776;SDS011;25453;48.162;14.510;2024-03-23T11:40:45;1.65;;;0.50;;
39776;SDS011;25453;48.162;14.510;2024-03-23T11:48:13;2.83;;;0.65;;
39776;SDS011;25453;48.162;14.510;2024-03-23T11:50:41;4.25;;;0.55;;
39776;SDS011;25453;48.162;14.510;2024-03-23T11:53:13;0.80;;;0.32;;
39776;SDS011;25453;48.162;14.510;2024-03-23T11:55:47;0.98;;;0.50;;
39776;SDS011;25453;48.162;14.510;2024-03-23T11:58:15;1.13;;;0.38;;
39776;SDS011;25453;48.162;14.510;2024-03-23T12:00:43;1.83;;;0.60;;
39776;SDS011;25453;48.162;14.510;2024-03-23T12:03:16;1.95;;;0.47;;
39776;SDS011;25453;48.162;14.510;2024-03-23T12:05:47;2.22;;;0.40;;
39776;SDS011;25453;48.162;14.510;2024-03-23T12:10:53;2.63;;;0.60;;
39776;SDS011;25453;48.162;14.510;2024-03-23T12:13:41;2.30;;;0.57;;
39776;SDS011;25453;48.162;14.510;2024-03-23T12:16:16;1.30;;;0.68;;
39776;SDS011;25453;48.162;14.510;2024-03-23T12:18:52;1.02;;;0.50;;
39776;SDS011;25453;48.162;14.510;2024-03-23T12:21:25;1.15;;;0.50;;
39776;SDS011;25453;48.162;14.510;2024-03-23T12:23:51;0.82;;;0.40;;
39776;SDS011;25453;48.162;14.510;2024-03-23T12:26:24;0.85;;;0.50;;
39776;SDS011;25453;48.162;14.510;2024-03-23T12:28:50;0.98;;;0.40;;
39776;SDS011;25453;48.162;14.510;2024-03-23T12:31:16;2.95;;;0.73;;
39776;SDS011;25453;48.162;14.510;2024-03-23T12:33:49;1.42;;;0.63;;
39776;SDS011;25453;48.162;14.510;2024-03-23T12:36:15;1.48;;;0.68;;
39776;SDS011;25453;48.162;14.510;2024-03-23T12:38:49;2.42;;;0.52;;
39776;SDS011;25453;48.162;14.510;2024-03-23T12:41:16;1.38;;;0.68;;
39776;SDS011;25453;48.162;14.510;2024-03-23T12:43:49;2.30;;;0.60;;
39776;SDS011;25453;48.162;14.510;2024-03-23T12:46:15;1.30;;;0.63;;
39776;SDS011;25453;48.162;14.510;2024-03-23T12:48:48;0.85;;;0.40;;
39776;SDS011;25453;48.162;14.510;2024-03-23T12:51:14;1.70;;;0.70;;
39776;SDS011;25453;48.162;14.510;2024-03-23T12:53:47;1.25;;;0.60;;
39776;SDS011;25453;48.162;14.510;2024-03-23T12:56:13;0.88;;;0.50;;
39776;SDS011;25453;48.162;14.510;2024-03-23T12:58:46;1.38;;;0.60;;
39776;SDS011;25453;48.162;14.510;2024-03-23T13:01:19;1.35;;;0.60;;
39776;SDS011;25453;48.162;14.510;2024-03-23T13:03:58;0.90;;;0.57;;
39776;SDS011;25453;48.162;14.510;2024-03-23T13:06:26;1.55;;;0.70;;
39776;SDS011;25453;48.162;14.510;2024-03-23T13:08:52;1.77;;;0.55;;
39776;SDS011;25453;48.162;14.510;2024-03-23T13:11:20;5.03;;;0.80;;
39776;SDS011;25453;48.162;14.510;2024-03-23T13:13:46;1.00;;;0.63;;
39776;SDS011;25453;48.162;14.510;2024-03-23T13:16:12;1.33;;;0.60;;
39776;SDS011;25453;48.162;14.510;2024-03-23T13:18:38;1.05;;;0.50;;
39776;SDS011;25453;48.162;14.510;2024-03-23T13:21:04;1.10;;;0.47;;
39776;SDS011;25453;48.162;14.510;2024-03-23T13:23:30;1.55;;;0.63;;
39776;SDS011;25453;48.162;14.510;2024-03-23T13:25:58;3.60;;;0.63;;
39776;SDS011;25453;48.162;14.510;2024-03-23T13:28:24;1.00;;;0.50;;
39776;SDS011;25453;48.162;14.510;2024-03-23T13:30:53;1.50;;;0.50;;
39776;SDS011;25453;48.162;14.510;2024-03-23T13:33:21;3.78;;;0.75;;
39776;SDS011;25453;48.162;14.510;2024-03-23T13:35:51;0.68;;;0.30;;
39776;SDS011;25453;48.162;14.510;2024-03-23T13:38:18;2.17;;;0.50;;
39776;SDS011;25453;48.162;14.510;2024-03-23T13:40:54;1.52;;;0.50;;
39776;SDS011;25453;48.162;14.510;2024-03-23T13:43:22;0.55;;;0.40;;
39776;SDS011;25453;48.162;14.510;2024-03-23T13:45:53;3.45;;;0.52;;
39776;SDS011;25453;48.162;14.510;2024-03-23T13:48:21;2.38;;;0.50;;
39776;SDS011;25453;48.162;14.510;2024-03-23T13:50:58;1.13;;;0.43;;
39776;SDS011;25453;48.162;14.510;2024-03-23T13:53:25;0.85;;;0.20;;
39776;SDS011;25453;48.162;14.510;2024-03-23T13:55:51;0.85;;;0.32;;
39776;SDS011;25453;48.162;14.510;2024-03-23T13:58:18;1.80;;;0.43;;
39776;SDS011;25453;48.162;14.510;2024-03-23T14:00:45;0.65;;;0.20;;
39776;SDS011;25453;48.162;14.510;2024-03-23T14:03:12;1.83;;;0.40;;
39776;SDS011;25453;48.162;14.510;2024-03-23T14:05:39;1.15;;;0.30;;
39776;SDS011;25453;48.162;14.510;2024-03-23T14:08:06;3.40;;;0.30;;
39776;SDS011;25453;48.162;14.510;2024-03-23T14:10:33;0.77;;;0.30;;
39776;SDS011;25453;48.162;14.510;2024-03-23T14:13:01;0.30;;;0.30;;
39776;SDS011;25453;48.162;14.510;2024-03-23T14:15:31;0.75;;;0.28;;
39776;SDS011;25453;48.162;14.510;2024-03-23T14:17:58;0.35;;;0.20;;
39776;SDS011;25453;48.162;14.510;2024-03-23T14:20:24;0.40;;;0.20;;
39776;SDS011;25453;48.162;14.510;2024-03-23T14:22:51;0.55;;;0.20;;
39776;SDS011;25453;48.162;14.510;2024-03-23T14:25:18;0.50;;;0.30;;
39776;SDS011;25453;48.162;14.510;2024-03-23T14:27:44;1.52;;;0.30;;
39776;SDS011;25453;48.162;14.510;2024-03-23T14:30:12;1.45;;;0.25;;
39776;SDS011;25453;48.162;14.510;2024-03-23T14:32:39;0.57;;;0.25;;
39776;SDS011;25453;48.162;14.510;2024-03-23T14:35:05;0.20;;;0.20;;
39776;SDS011;25453;48.162;14.510;2024-03-23T14:37:34;0.32;;;0.28;;
39776;SDS011;25453;48.162;14.510;2024-03-23T14:40:00;0.60;;;0.40;;
39776;SDS011;25453;48.162;14.510;2024-03-23T14:42:28;1.70;;;0.20;;
39776;SDS011;25453;48.162;14.510;2024-03-23T14:44:54;0.38;;;0.30;;
39776;SDS011;25453;48.162;14.510;2024-03-23T14:47:20;0.68;;;0.25;;
39776;SDS011;25453;48.162;14.510;2024-03-23T14:49:46;0.98;;;0.30;;
39776;SDS011;25453;48.162;14.510;2024-03-23T14:52:13;1.13;;;0.40;;
39776;SDS011;25453;48.162;14.510;2024-03-23T14:54:39;1.05;;;0.50;;
39776;SDS011;25453;48.162;14.510;2024-03-23T14:57:05;0.95;;;0.45;;
39776;SDS011;25453;48.162;14.510;2024-03-23T14:59:34;1.58;;;0.30;;
39776;SDS011;25453;48.162;14.510;2024-03-23T15:02:04;0.75;;;0.40;;
39776;SDS011;25453;48.162;14.510;2024-03-23T15:04:30;2.47;;;0.40;;
39776;SDS011;25453;48.162;14.510;2024-03-23T15:06:56;0.98;;;0.50;;
39776;SDS011;25453;48.162;14.510;2024-03-23T15:09:22;0.52;;;0.30;;
39776;SDS011;25453;48.162;14.510;2024-03-23T15:11:50;0.60;;;0.30;;
39776;SDS011;25453;48.162;14.510;2024-03-23T15:14:16;0.90;;;0.20;;
39776;SDS011;25453;48.162;14.510;2024-03-23T15:16:42;0.93;;;0.40;;
39776;SDS011;25453;48.162;14.510;2024-03-23T15:19:08;0.63;;;0.28;;
39776;SDS011;25453;48.162;14.510;2024-03-23T15:21:34;0.30;;;0.30;;
39776;SDS011;25453;48.162;14.510;2024-03-23T15:24:01;0.55;;;0.35;;
39776;SDS011;25453;48.162;14.510;2024-03-23T15:26:27;1.48;;;0.40;;
39776;SDS011;25453;48.162;14.510;2024-03-23T15:28:53;1.80;;;0.32;;
39776;SDS011;25453;48.162;14.510;2024-03-23T15:31:22;1.02;;;0.32;;
39776;SDS011;25453;48.162;14.510;2024-03-23T15:33:48;0.38;;;0.38;;
39776;SDS011;25453;48.162;14.510;2024-03-23T15:36:15;0.95;;;0.40;;
39776;SDS011;25453;48.162;14.510;2024-03-23T15:38:41;0.70;;;0.30;;
39776;SDS011;25453;48.162;14.510;2024-03-23T15:41:08;1.85;;;0.32;;
39776;SDS011;25453;48.162;14.510;2024-03-23T15:43:35;1.95;;;0.60;;